createdAt,value
2017-08-15T00:00:39.437Z,24.45
2017-08-15T00:01:49.368Z,24.46
2017-08-15T00:02:59.443Z,24.46
2017-08-15T00:04:09.414Z,24.47
2017-08-15T00:05:19.337Z,24.47
2017-08-15T00:06:29.572Z,24.46
2017-08-15T00:07:39.806Z,24.49
2017-08-15T00:08:49.882Z,24.49
2017-08-15T00:10:00.125Z,24.5
2017-08-15T00:11:10.373Z,24.47
2017-08-15T00:12:20.030Z,24.57
2017-08-15T00:13:29.959Z,24.52
2017-08-15T00:14:40.022Z,24.47
2017-08-15T00:15:49.378Z,24.43
2017-08-15T00:16:59.323Z,24.5
2017-08-15T00:18:09.566Z,24.45
2017-08-15T00:19:19.793Z,24.49
2017-08-15T00:20:29.412Z,24.5
2017-08-15T00:21:39.333Z,24.45
2017-08-15T00:22:49.574Z,24.42
2017-08-15T00:23:59.499Z,24.45
2017-08-15T00:25:09.723Z,24.42
2017-08-15T00:26:19.713Z,24.4
2017-08-15T00:27:29.651Z,24.43
2017-08-15T00:28:39.573Z,24.37
2017-08-15T00:29:49.206Z,24.34
2017-08-15T00:30:59.136Z,24.4
2017-08-15T00:32:09.717Z,24.37
2017-08-15T00:33:19.640Z,24.42
2017-08-15T00:34:29.885Z,24.31
2017-08-15T00:35:39.510Z,24.31
2017-08-15T00:36:49.764Z,24.31
2017-08-15T00:37:59.885Z,24.45
2017-08-15T00:39:10.131Z,24.5
2017-08-15T00:40:20.042Z,24.34
2017-08-15T00:41:29.984Z,24.43
2017-08-15T00:42:39.918Z,24.32
2017-08-15T00:43:49.402Z,24.32
2017-08-15T00:44:59.339Z,24.31
2017-08-15T00:46:08.993Z,24.3
2017-08-15T00:47:18.604Z,24.32
2017-08-15T00:48:28.525Z,24.37
2017-08-15T00:49:38.908Z,24.3
2017-08-15T00:50:49.518Z,24.3
2017-08-15T00:51:59.148Z,24.27
2017-08-15T00:53:09.378Z,24.24
2017-08-15T00:54:19.310Z,24.34
2017-08-15T00:55:29.712Z,24.25
2017-08-15T00:56:39.331Z,24.24
2017-08-15T00:57:49.257Z,24.27
2017-08-15T00:58:58.887Z,24.09
2017-08-15T01:00:08.210Z,24.3
2017-08-15T01:01:18.441Z,24.13
2017-08-15T01:02:28.064Z,24.32
2017-08-15T01:03:37.696Z,24.27
2017-08-15T01:04:47.618Z,24.22
2017-08-15T01:05:57.532Z,24.22
2017-08-15T01:07:07.603Z,24.21
2017-08-15T01:08:17.221Z,24.22
2017-08-15T01:09:27.456Z,24.24
2017-08-15T01:10:37.377Z,24.18
2017-08-15T01:11:46.688Z,24.15
2017-08-15T01:12:57.100Z,24.24
2017-08-15T01:14:07.025Z,24.18
2017-08-15T01:15:16.979Z,24.2
2017-08-15T01:16:26.906Z,24.21
2017-08-15T01:17:37.140Z,24.21
2017-08-15T01:18:47.228Z,24.21
2017-08-15T01:19:57.165Z,24.2
2017-08-15T01:21:07.426Z,24.24
2017-08-15T01:22:17.338Z,24.16
2017-08-15T01:23:26.967Z,24.21
2017-08-15T01:24:36.664Z,24.12
2017-08-15T01:25:46.584Z,24.16
2017-08-15T01:26:56.194Z,24.25
2017-08-15T01:28:06.420Z,24.16
2017-08-15T01:29:16.357Z,24.16
2017-08-15T01:30:26.334Z,24.15
2017-08-15T01:31:35.936Z,24.21
2017-08-15T01:32:45.873Z,24.16
2017-08-15T01:33:55.192Z,24.24
2017-08-15T01:35:05.463Z,24.15
2017-08-15T01:36:15.235Z,24.18
2017-08-15T01:37:24.863Z,24.27
2017-08-15T01:38:34.782Z,24.18
2017-08-15T01:39:44.701Z,24.09
2017-08-15T01:40:54.945Z,24.06
2017-08-15T01:42:04.706Z,24.15
2017-08-15T01:43:14.323Z,24.09
2017-08-15T01:44:24.237Z,24.15
2017-08-15T01:45:34.154Z,24.18
2017-08-15T01:46:44.371Z,24.16
2017-08-15T01:47:54.746Z,24.18
2017-08-15T01:49:04.350Z,24.1
2017-08-15T01:50:14.262Z,24.08
2017-08-15T01:51:24.184Z,24.18
2017-08-15T01:52:34.099Z,24.16
2017-08-15T01:53:44.170Z,24.15
2017-08-15T01:54:53.788Z,24.15
2017-08-15T01:56:03.432Z,24.08
2017-08-15T01:57:13.661Z,24.1
2017-08-15T01:58:23.607Z,24.2
2017-08-15T01:59:33.231Z,24.05
2017-08-15T02:00:43.227Z,24.13
2017-08-15T02:01:53.157Z,24.1
2017-08-15T02:03:03.382Z,24.08
2017-08-15T02:04:13.002Z,24
2017-08-15T02:05:23.237Z,24.09
2017-08-15T02:06:33.460Z,24.03
2017-08-15T02:07:43.430Z,24.12
2017-08-15T02:08:52.741Z,24.1
2017-08-15T02:10:02.512Z,24.13
2017-08-15T02:11:12.417Z,24.12
2017-08-15T02:12:22.344Z,24.08
2017-08-15T02:13:31.948Z,24.15
2017-08-15T02:14:42.219Z,24.12
2017-08-15T02:15:52.818Z,24.1
2017-08-15T02:17:02.438Z,24.13
2017-08-15T02:18:12.356Z,24.1
2017-08-15T02:19:22.580Z,24.1
2017-08-15T02:20:32.805Z,24.06
2017-08-15T02:21:41.953Z,24.12
2017-08-15T02:22:51.872Z,24.12
2017-08-15T02:24:01.490Z,24.05
2017-08-15T02:25:11.414Z,24.03
2017-08-15T02:26:21.029Z,24.05
2017-08-15T02:27:30.632Z,24.06
2017-08-15T02:28:40.862Z,23.95
2017-08-15T02:29:51.088Z,24.06
2017-08-15T02:31:00.705Z,24.03
2017-08-15T02:32:10.940Z,23.97
2017-08-15T02:33:21.152Z,23.95
2017-08-15T02:34:31.076Z,23.94
2017-08-15T02:35:40.383Z,24
2017-08-15T02:36:50.294Z,23.91
2017-08-15T02:38:00.445Z,24.05
2017-08-15T02:39:10.154Z,24.02
2017-08-15T02:40:19.767Z,24
2017-08-15T02:41:30.002Z,24.03
2017-08-15T02:42:39.917Z,23.93
2017-08-15T02:43:49.846Z,24
2017-08-15T02:45:00.125Z,23.95
2017-08-15T02:46:10.034Z,24.03
2017-08-15T02:47:19.635Z,24.05
2017-08-15T02:48:29.539Z,24.03
2017-08-15T02:49:38.835Z,23.94
2017-08-15T02:50:48.907Z,23.9
2017-08-15T02:51:58.836Z,24.08
2017-08-15T02:53:08.754Z,24.12
2017-08-15T02:54:18.995Z,24.05
2017-08-15T02:55:28.912Z,24
2017-08-15T02:56:38.968Z,24.03
2017-08-15T02:57:49.188Z,24.08
2017-08-15T02:58:58.797Z,24.05
2017-08-15T03:00:08.425Z,24
2017-08-15T03:01:18.653Z,23.94
2017-08-15T03:02:28.887Z,24.05
2017-08-15T03:03:38.505Z,23.97
2017-08-15T03:04:48.136Z,24.06
2017-08-15T03:05:58.375Z,24.05
2017-08-15T03:07:08.412Z,23.97
2017-08-15T03:08:18.643Z,24.05
2017-08-15T03:09:28.556Z,24.1
2017-08-15T03:10:38.158Z,24.02
2017-08-15T03:11:48.398Z,24.05
2017-08-15T03:12:58.792Z,24.05
2017-08-15T03:14:08.720Z,24.02
2017-08-15T03:15:18.636Z,24.03
2017-08-15T03:16:27.937Z,24
2017-08-15T03:17:38.163Z,24
2017-08-15T03:18:47.791Z,24.08
2017-08-15T03:19:57.721Z,24
2017-08-15T03:21:07.018Z,24.05
2017-08-15T03:22:17.249Z,24.05
2017-08-15T03:23:27.168Z,24.08
2017-08-15T03:24:37.389Z,24.06
2017-08-15T03:25:46.377Z,23.95
2017-08-15T03:26:56.326Z,23.97
2017-08-15T03:28:06.539Z,24.03
2017-08-15T03:29:16.760Z,24.05
2017-08-15T03:30:26.371Z,24.03
2017-08-15T03:31:35.993Z,24.02
2017-08-15T03:32:46.211Z,24.05
2017-08-15T03:33:56.127Z,23.98
2017-08-15T03:35:06.343Z,24.06
2017-08-15T03:36:16.365Z,24.02
2017-08-15T03:37:26.587Z,23.94
2017-08-15T03:38:35.880Z,23.94
2017-08-15T03:39:45.820Z,23.95
2017-08-15T03:40:55.445Z,23.9
2017-08-15T03:42:05.525Z,23.91
2017-08-15T03:43:15.447Z,24
2017-08-15T03:44:25.668Z,23.91
2017-08-15T03:45:35.286Z,23.88
2017-08-15T03:46:45.210Z,23.95
2017-08-15T03:47:55.185Z,23.93
2017-08-15T03:49:05.411Z,23.85
2017-08-15T03:50:15.324Z,23.87
2017-08-15T03:51:24.932Z,23.9
2017-08-15T03:52:34.542Z,23.88
2017-08-15T03:53:44.513Z,23.83
2017-08-15T03:54:54.439Z,23.88
2017-08-15T03:56:04.662Z,23.76
2017-08-15T03:57:14.264Z,23.83
2017-08-15T03:58:24.187Z,23.85
2017-08-15T03:59:34.555Z,23.79
2017-08-15T04:00:44.479Z,23.8
2017-08-15T04:01:54.388Z,23.83
2017-08-15T04:03:04.002Z,23.78
2017-08-15T04:04:14.239Z,23.75
2017-08-15T04:05:24.594Z,23.8
2017-08-15T04:06:34.509Z,23.73
2017-08-15T04:07:44.732Z,23.76
2017-08-15T04:08:54.635Z,23.8
2017-08-15T04:10:04.248Z,23.79
2017-08-15T04:11:14.015Z,23.73
2017-08-15T04:12:23.652Z,23.66
2017-08-15T04:13:32.971Z,23.72
2017-08-15T04:14:43.201Z,23.75
2017-08-15T04:15:53.429Z,23.76
2017-08-15T04:17:03.188Z,23.68
2017-08-15T04:18:13.416Z,23.7
2017-08-15T04:19:23.337Z,23.73
2017-08-15T04:20:32.992Z,23.76
2017-08-15T04:21:42.598Z,23.72
2017-08-15T04:22:52.974Z,23.66
2017-08-15T04:24:02.576Z,23.63
2017-08-15T04:25:12.821Z,23.78
2017-08-15T04:26:22.773Z,23.63
2017-08-15T04:27:32.082Z,23.61
2017-08-15T04:28:41.692Z,23.63
2017-08-15T04:29:51.627Z,23.6
2017-08-15T04:31:01.544Z,23.6
2017-08-15T04:32:11.464Z,23.63
2017-08-15T04:33:21.418Z,23.63
2017-08-15T04:34:31.122Z,23.63
2017-08-15T04:35:40.434Z,23.6
2017-08-15T04:36:50.056Z,23.61
2017-08-15T04:38:00.294Z,23.6
2017-08-15T04:39:10.237Z,23.61
2017-08-15T04:40:20.630Z,23.66
2017-08-15T04:41:30.270Z,23.68
2017-08-15T04:42:40.523Z,23.55
2017-08-15T04:43:50.467Z,23.6
2017-08-15T04:45:00.380Z,23.57
2017-08-15T04:46:10.785Z,23.68
2017-08-15T04:47:20.710Z,23.65
2017-08-15T04:48:30.639Z,23.6
2017-08-15T04:49:40.273Z,23.65
2017-08-15T04:50:50.533Z,23.54
2017-08-15T04:52:00.384Z,23.55
2017-08-15T04:53:10.314Z,23.66
2017-08-15T04:54:20.231Z,23.57
2017-08-15T04:55:29.846Z,23.65
2017-08-15T04:56:39.459Z,23.66
2017-08-15T04:57:49.726Z,23.68
2017-08-15T04:58:59.645Z,23.65
2017-08-15T05:00:08.956Z,23.73
2017-08-15T05:01:18.574Z,23.7
2017-08-15T05:02:28.200Z,23.76
2017-08-15T05:03:38.178Z,23.78
2017-08-15T05:04:48.093Z,23.76
2017-08-15T05:05:57.751Z,23.87
2017-08-15T05:07:07.666Z,23.85
2017-08-15T05:08:17.614Z,23.97
2017-08-15T05:09:27.996Z,23.87
2017-08-15T05:10:37.934Z,23.98
2017-08-15T05:11:47.237Z,23.98
2017-08-15T05:12:56.573Z,24.05
2017-08-15T05:14:06.211Z,23.93
2017-08-15T05:15:16.599Z,24.13
2017-08-15T05:16:26.509Z,24.16
2017-08-15T05:17:36.424Z,24.2
2017-08-15T05:18:46.653Z,24.3
2017-08-15T05:19:56.593Z,24.27
2017-08-15T05:21:06.634Z,24.31
2017-08-15T05:22:16.577Z,24.28
2017-08-15T05:23:26.510Z,24.42
2017-08-15T05:24:36.444Z,24.46
2017-08-15T05:25:46.685Z,24.45
2017-08-15T05:26:56.954Z,24.5
2017-08-15T05:28:07.173Z,24.57
2017-08-15T05:29:17.435Z,24.57
2017-08-15T05:30:26.767Z,24.65
2017-08-15T05:31:36.712Z,24.71
2017-08-15T05:32:46.794Z,24.76
2017-08-15T05:33:56.094Z,24.76
2017-08-15T05:35:05.698Z,24.8
2017-08-15T05:36:15.917Z,24.77
2017-08-15T05:37:25.830Z,24.95
2017-08-15T05:38:35.510Z,24.88
2017-08-15T05:39:45.119Z,24.96
2017-08-15T05:40:54.744Z,25.08
2017-08-15T05:42:04.969Z,25.1
2017-08-15T05:43:14.573Z,25.14
2017-08-15T05:44:24.940Z,25.18
2017-08-15T05:45:34.567Z,25.2
2017-08-15T05:46:44.475Z,25.24
2017-08-15T05:47:54.085Z,25.28
2017-08-15T05:49:04.005Z,25.38
2017-08-15T05:50:14.220Z,25.28
2017-08-15T05:51:24.153Z,25.35
2017-08-15T05:52:33.466Z,25.38
2017-08-15T05:53:43.083Z,25.43
2017-08-15T05:54:53.023Z,25.47
2017-08-15T05:56:02.970Z,25.55
2017-08-15T05:57:12.887Z,25.47
2017-08-15T05:58:22.489Z,25.58
2017-08-15T05:59:32.418Z,25.46
2017-08-15T06:00:42.355Z,25.52
2017-08-15T06:01:52.288Z,25.55
2017-08-15T06:03:02.207Z,25.64
2017-08-15T06:04:11.805Z,25.69
2017-08-15T06:05:21.718Z,25.62
2017-08-15T06:06:31.934Z,25.7
2017-08-15T06:07:42.311Z,25.77
2017-08-15T06:08:52.225Z,25.79
2017-08-15T06:10:02.142Z,25.85
2017-08-15T06:11:12.354Z,25.88
2017-08-15T06:12:22.271Z,25.91
2017-08-15T06:13:32.064Z,25.9
2017-08-15T06:14:41.976Z,25.94
2017-08-15T06:15:51.893Z,25.95
2017-08-15T06:17:01.185Z,25.92
2017-08-15T06:18:11.153Z,26.1
2017-08-15T06:19:21.432Z,25.95
2017-08-15T06:20:31.340Z,25.98
2017-08-15T06:21:41.264Z,25.97
2017-08-15T06:22:51.500Z,25.92
2017-08-15T06:24:00.814Z,25.94
2017-08-15T06:25:11.064Z,25.95
2017-08-15T06:26:21.318Z,25.94
2017-08-15T06:27:31.549Z,25.9
2017-08-15T06:28:41.787Z,25.91
2017-08-15T06:29:51.079Z,25.83
2017-08-15T06:31:01.452Z,25.87
2017-08-15T06:32:11.669Z,25.87
2017-08-15T06:33:21.595Z,25.82
2017-08-15T06:34:31.807Z,25.77
2017-08-15T06:35:41.438Z,25.79
2017-08-15T06:36:51.712Z,25.75
2017-08-15T06:38:01.632Z,25.76
2017-08-15T06:39:11.558Z,25.7
2017-08-15T06:40:21.479Z,25.7
2017-08-15T06:41:30.799Z,25.69
2017-08-15T06:42:40.549Z,25.7
2017-08-15T06:43:50.798Z,25.7
2017-08-15T06:45:00.412Z,25.69
2017-08-15T06:46:10.654Z,25.7
2017-08-15T06:47:20.588Z,25.76
2017-08-15T06:48:30.561Z,25.65
2017-08-15T06:49:40.499Z,25.57
2017-08-15T06:50:50.121Z,25.72
2017-08-15T06:52:00.046Z,25.61
2017-08-15T06:53:10.301Z,25.62
2017-08-15T06:54:20.269Z,25.73
2017-08-15T06:55:30.511Z,25.73
2017-08-15T06:56:40.132Z,25.65
2017-08-15T06:57:49.747Z,25.69
2017-08-15T06:58:59.967Z,25.73
2017-08-15T07:00:09.880Z,25.7
2017-08-15T07:01:20.114Z,25.7
2017-08-15T07:02:30.032Z,25.76
2017-08-15T07:03:39.967Z,25.79
2017-08-15T07:04:49.580Z,25.75
2017-08-15T07:05:59.043Z,25.83
2017-08-15T07:07:09.281Z,25.85
2017-08-15T07:08:19.198Z,25.72
2017-08-15T07:09:29.137Z,25.77
2017-08-15T07:10:39.365Z,25.79
2017-08-15T07:11:49.298Z,25.77
2017-08-15T07:12:59.226Z,25.82
2017-08-15T07:14:08.835Z,25.76
2017-08-15T07:15:18.446Z,25.79
2017-08-15T07:16:28.062Z,25.77
2017-08-15T07:17:38.342Z,25.75
2017-08-15T07:18:48.585Z,25.75
2017-08-15T07:19:58.507Z,25.82
2017-08-15T07:21:08.425Z,25.79
2017-08-15T07:22:18.382Z,25.77
2017-08-15T07:23:28.149Z,25.77
2017-08-15T07:24:37.761Z,25.79
2017-08-15T07:25:47.977Z,25.73
2017-08-15T07:26:58.204Z,25.76
2017-08-15T07:28:08.143Z,25.82
2017-08-15T07:29:17.922Z,25.76
2017-08-15T07:30:28.150Z,25.79
2017-08-15T07:31:38.401Z,25.82
2017-08-15T07:32:48.327Z,25.8
2017-08-15T07:33:58.254Z,25.75
2017-08-15T07:35:08.321Z,25.79
2017-08-15T07:36:18.255Z,25.87
2017-08-15T07:37:28.507Z,25.83
2017-08-15T07:38:38.122Z,25.82
2017-08-15T07:39:47.749Z,25.9
2017-08-15T07:40:58.184Z,25.9
2017-08-15T07:42:08.418Z,25.92
2017-08-15T07:43:18.035Z,25.92
2017-08-15T07:44:27.983Z,25.95
2017-08-15T07:45:37.921Z,25.97
2017-08-15T07:46:48.325Z,25.92
2017-08-15T07:47:58.581Z,25.95
2017-08-15T07:49:08.520Z,25.91
2017-08-15T07:50:17.529Z,25.9
2017-08-15T07:51:27.776Z,25.83
2017-08-15T07:52:37.848Z,25.77
2017-08-15T07:53:47.775Z,25.8
2017-08-15T07:54:57.707Z,25.76
2017-08-15T07:56:07.313Z,25.73
2017-08-15T07:57:17.273Z,25.75
2017-08-15T07:58:27.352Z,25.64
2017-08-15T07:59:37.296Z,25.69
2017-08-15T08:00:46.627Z,25.67
2017-08-15T08:01:56.557Z,25.67
2017-08-15T08:03:06.473Z,25.65
2017-08-15T08:04:16.241Z,25.67
2017-08-15T08:05:26.158Z,25.6
2017-08-15T08:06:36.378Z,25.52
2017-08-15T08:07:46.608Z,25.55
2017-08-15T08:08:56.545Z,25.57
2017-08-15T08:10:06.617Z,25.54
2017-08-15T08:11:16.840Z,25.52
2017-08-15T08:12:26.479Z,25.61
2017-08-15T08:13:36.394Z,25.46
2017-08-15T08:14:46.024Z,25.5
2017-08-15T08:15:56.253Z,25.45
2017-08-15T08:17:06.489Z,25.5
2017-08-15T08:18:15.784Z,25.47
2017-08-15T08:19:25.407Z,25.32
2017-08-15T08:20:35.355Z,25.42
2017-08-15T08:21:45.270Z,25.38
2017-08-15T08:22:55.194Z,25.39
2017-08-15T08:24:05.144Z,25.45
2017-08-15T08:25:15.373Z,25.35
2017-08-15T08:26:24.991Z,25.43
2017-08-15T08:27:34.704Z,25.42
2017-08-15T08:28:44.923Z,25.32
2017-08-15T08:29:54.890Z,25.35
2017-08-15T08:31:05.111Z,25.32
2017-08-15T08:32:15.341Z,25.28
2017-08-15T08:33:25.355Z,25.32
2017-08-15T08:34:35.284Z,25.3
2017-08-15T08:35:44.892Z,25.33
2017-08-15T08:36:54.504Z,25.39
2017-08-15T08:38:04.439Z,25.33
2017-08-15T08:39:14.883Z,25.33
2017-08-15T08:40:25.135Z,25.3
2017-08-15T08:41:35.060Z,25.32
2017-08-15T08:42:44.982Z,25.38
2017-08-15T08:43:54.913Z,25.33
2017-08-15T08:45:04.566Z,25.25
2017-08-15T08:46:14.505Z,25.27
2017-08-15T08:47:24.123Z,25.35
2017-08-15T08:48:34.036Z,25.35
2017-08-15T08:49:44.263Z,25.32
2017-08-15T08:50:53.863Z,25.32
2017-08-15T08:52:03.470Z,25.3
2017-08-15T08:53:13.082Z,25.25
2017-08-15T08:54:23.323Z,25.28
2017-08-15T08:55:32.947Z,25.21
2017-08-15T08:56:43.480Z,25.24
2017-08-15T08:57:53.094Z,25.27
2017-08-15T08:59:02.414Z,25.25
2017-08-15T09:00:12.330Z,25.25
2017-08-15T09:01:22.253Z,25.21
2017-08-15T09:02:31.559Z,25.23
2017-08-15T09:03:41.481Z,25.25
2017-08-15T09:04:51.705Z,25.18
2017-08-15T09:06:01.331Z,25.21
2017-08-15T09:07:11.556Z,25.15
2017-08-15T09:08:21.632Z,25.18
2017-08-15T09:09:31.239Z,25.21
2017-08-15T09:10:41.173Z,25.21
2017-08-15T09:11:51.093Z,25.17
2017-08-15T09:13:00.711Z,25.2
2017-08-15T09:14:10.648Z,25.18
2017-08-15T09:15:20.261Z,25.23
2017-08-15T09:16:29.874Z,25.18
2017-08-15T09:17:39.796Z,25.15
2017-08-15T09:18:49.718Z,25.15
2017-08-15T09:19:59.327Z,25.2
2017-08-15T09:21:09.245Z,25.2
2017-08-15T09:22:19.172Z,25.21
2017-08-15T09:23:28.788Z,25.24
2017-08-15T09:24:38.417Z,25.17
2017-08-15T09:25:49.013Z,25.2
2017-08-15T09:26:59.259Z,25.18
2017-08-15T09:28:09.476Z,25.14
2017-08-15T09:29:19.092Z,25.21
2017-08-15T09:30:29.327Z,25.21
2017-08-15T09:31:39.861Z,25.23
2017-08-15T09:32:50.108Z,25.14
2017-08-15T09:34:00.053Z,25.18
2017-08-15T09:35:10.285Z,25.18
2017-08-15T09:36:20.514Z,25.18
2017-08-15T09:37:30.856Z,25.17
2017-08-15T09:38:40.480Z,25.14
2017-08-15T09:39:50.711Z,25.14
2017-08-15T09:41:00.337Z,25.18
2017-08-15T09:42:10.293Z,25.18
2017-08-15T09:43:20.368Z,25.13
2017-08-15T09:44:29.976Z,25.18
2017-08-15T09:45:39.592Z,25.17
2017-08-15T09:46:49.511Z,25.17
2017-08-15T09:47:58.825Z,25.13
2017-08-15T09:49:08.750Z,25.14
2017-08-15T09:50:18.354Z,25.09
2017-08-15T09:51:27.976Z,25.09
2017-08-15T09:52:38.232Z,25.15
2017-08-15T09:53:47.848Z,25.09
2017-08-15T09:54:57.780Z,25.2
2017-08-15T09:56:07.400Z,25.14
2017-08-15T09:57:17.324Z,25.18
2017-08-15T09:58:27.564Z,25.1
2017-08-15T09:59:37.488Z,25.13
2017-08-15T10:00:47.124Z,25.05
2017-08-15T10:01:56.737Z,25.1
2017-08-15T10:03:06.049Z,25.14
2017-08-15T10:04:15.979Z,25.09
2017-08-15T10:05:25.696Z,25.08
2017-08-15T10:06:35.934Z,25.09
2017-08-15T10:07:45.864Z,25.15
2017-08-15T10:08:56.081Z,25.14
2017-08-15T10:10:06.337Z,25.09
2017-08-15T10:11:16.268Z,25.09
2017-08-15T10:12:26.189Z,25.13
2017-08-15T10:13:36.104Z,25.13
2017-08-15T10:14:45.729Z,25.15
2017-08-15T10:15:55.986Z,25.15
2017-08-15T10:17:06.560Z,25.1
2017-08-15T10:18:16.187Z,25.09
2017-08-15T10:19:26.428Z,25.15
2017-08-15T10:20:36.648Z,25.06
2017-08-15T10:21:46.566Z,25.09
2017-08-15T10:22:56.952Z,25.08
2017-08-15T10:24:06.862Z,25.1
2017-08-15T10:25:17.095Z,25.15
2017-08-15T10:26:27.320Z,25.1
2017-08-15T10:27:37.255Z,25.05
2017-08-15T10:28:47.488Z,25.1
2017-08-15T10:29:57.740Z,25.08
2017-08-15T10:31:07.980Z,25.14
2017-08-15T10:32:18.216Z,25.15
2017-08-15T10:33:28.167Z,25.1
2017-08-15T10:34:37.477Z,25.09
2017-08-15T10:35:46.802Z,25.06
2017-08-15T10:36:57.423Z,25.05
2017-08-15T10:38:07.368Z,25.08
2017-08-15T10:39:17.665Z,25.14
2017-08-15T10:40:27.270Z,25.13
2017-08-15T10:41:37.215Z,25.2
2017-08-15T10:42:46.841Z,25.14
2017-08-15T10:43:57.073Z,25.18
2017-08-15T10:45:07.284Z,25.15
2017-08-15T10:46:17.207Z,25.2
2017-08-15T10:47:27.435Z,25.21
2017-08-15T10:48:37.358Z,25.2
2017-08-15T10:49:47.283Z,25.23
2017-08-15T10:50:57.671Z,25.21
2017-08-15T10:52:07.597Z,25.23
2017-08-15T10:53:17.212Z,25.28
2017-08-15T10:54:27.149Z,25.35
2017-08-15T10:55:37.384Z,25.38
2017-08-15T10:56:47.602Z,25.32
2017-08-15T10:57:57.202Z,25.33
2017-08-15T10:59:07.134Z,25.46
2017-08-15T11:00:17.078Z,25.33
2017-08-15T11:01:27.070Z,25.33
2017-08-15T11:02:36.988Z,25.38
2017-08-15T11:03:46.929Z,25.36
2017-08-15T11:04:57.170Z,25.46
2017-08-15T11:06:06.182Z,25.42
2017-08-15T11:07:15.949Z,25.45
2017-08-15T11:08:25.889Z,25.46
2017-08-15T11:09:35.500Z,25.47
2017-08-15T11:10:45.749Z,25.47
2017-08-15T11:11:55.381Z,25.46
2017-08-15T11:13:05.315Z,25.5
2017-08-15T11:14:15.541Z,25.5
2017-08-15T11:15:25.764Z,25.5
2017-08-15T11:16:35.101Z,25.5
2017-08-15T11:17:45.342Z,25.51
2017-08-15T11:18:55.102Z,25.46
2017-08-15T11:20:05.341Z,25.52
2017-08-15T11:21:14.956Z,25.51
2017-08-15T11:22:25.187Z,25.46
2017-08-15T11:23:35.123Z,25.51
2017-08-15T11:24:45.048Z,25.42
2017-08-15T11:25:55.298Z,25.46
2017-08-15T11:27:05.539Z,25.43
2017-08-15T11:28:15.769Z,25.47
2017-08-15T11:29:26.001Z,25.45
2017-08-15T11:30:35.376Z,25.5
2017-08-15T11:31:45.294Z,25.52
2017-08-15T11:32:55.212Z,25.43
2017-08-15T11:34:05.133Z,25.47
2017-08-15T11:35:14.748Z,25.46
2017-08-15T11:36:24.513Z,25.32
2017-08-15T11:37:34.137Z,25.5
2017-08-15T11:38:44.096Z,25.46
2017-08-15T11:39:54.010Z,25.46
2017-08-15T11:41:03.931Z,25.46
2017-08-15T11:42:14.000Z,25.47
2017-08-15T11:43:23.925Z,25.51
2017-08-15T11:44:33.844Z,25.52
2017-08-15T11:45:43.771Z,25.51
2017-08-15T11:46:53.401Z,25.5
2017-08-15T11:48:03.685Z,25.5
2017-08-15T11:49:13.323Z,25.45
2017-08-15T11:50:23.946Z,25.57
2017-08-15T11:51:34.187Z,25.55
2017-08-15T11:52:43.829Z,25.46
2017-08-15T11:53:53.634Z,25.51
2017-08-15T11:55:03.566Z,25.55
2017-08-15T11:56:13.809Z,25.5
2017-08-15T11:57:23.765Z,25.57
2017-08-15T11:58:33.385Z,25.45
2017-08-15T11:59:43.670Z,25.43
2017-08-15T12:00:53.312Z,25.51
2017-08-15T12:02:03.277Z,25.52
2017-08-15T12:03:13.205Z,25.52
2017-08-15T12:04:23.148Z,25.51
2017-08-15T12:05:33.226Z,25.47
2017-08-15T12:06:42.875Z,25.46
2017-08-15T12:07:52.500Z,25.52
2017-08-15T12:09:02.431Z,25.47
2017-08-15T12:10:12.071Z,25.43
2017-08-15T12:11:22.314Z,25.52
2017-08-15T12:12:32.259Z,25.46
2017-08-15T12:13:42.189Z,25.45
2017-08-15T12:14:52.426Z,25.51
2017-08-15T12:16:02.058Z,25.51
2017-08-15T12:17:12.335Z,25.51
2017-08-15T12:18:22.571Z,25.58
2017-08-15T12:19:32.194Z,25.47
2017-08-15T12:20:41.834Z,25.62
2017-08-15T12:21:51.767Z,25.58
2017-08-15T12:23:01.862Z,25.57
2017-08-15T12:24:12.106Z,25.54
2017-08-15T12:25:21.414Z,25.55
2017-08-15T12:26:31.348Z,25.62
2017-08-15T12:27:40.370Z,25.64
2017-08-15T12:28:50.633Z,25.61
2017-08-15T12:30:00.553Z,25.61
2017-08-15T12:31:10.802Z,25.54
2017-08-15T12:32:20.119Z,25.54
2017-08-15T12:33:29.722Z,25.61
2017-08-15T12:34:39.692Z,25.55
2017-08-15T12:35:49.621Z,25.51
2017-08-15T12:36:59.561Z,25.52
2017-08-15T12:38:09.791Z,25.52
2017-08-15T12:39:19.721Z,25.58
2017-08-15T12:40:29.807Z,25.57
2017-08-15T12:41:40.041Z,25.61
2017-08-15T12:42:50.265Z,25.52
2017-08-15T12:44:00.510Z,25.51
2017-08-15T12:45:10.754Z,25.54
2017-08-15T12:46:20.219Z,25.46
2017-08-15T12:47:29.856Z,25.55
2017-08-15T12:48:39.485Z,25.54
2017-08-15T12:49:49.102Z,25.52
2017-08-15T12:50:59.341Z,25.57
2017-08-15T12:52:09.373Z,25.47
2017-08-15T12:53:19.307Z,25.5
2017-08-15T12:54:28.927Z,25.46
2017-08-15T12:55:39.156Z,25.55
2017-08-15T12:56:48.783Z,25.51
2017-08-15T12:57:58.857Z,25.46
2017-08-15T12:59:08.820Z,25.45
2017-08-15T13:00:18.470Z,25.46
2017-08-15T13:01:28.705Z,25.5
2017-08-15T13:02:38.641Z,25.5
2017-08-15T13:03:48.584Z,25.5
2017-08-15T13:04:58.814Z,25.5
2017-08-15T13:06:09.055Z,25.36
2017-08-15T13:07:18.996Z,25.51
2017-08-15T13:08:28.928Z,25.46
2017-08-15T13:09:38.604Z,25.54
2017-08-15T13:10:48.558Z,25.5
2017-08-15T13:11:58.178Z,25.45
2017-08-15T13:13:07.812Z,25.5
2017-08-15T13:14:17.421Z,25.54
2017-08-15T13:15:27.488Z,25.51
2017-08-15T13:16:37.411Z,25.54
2017-08-15T13:17:47.650Z,25.55
2017-08-15T13:18:56.953Z,25.5
2017-08-15T13:20:06.573Z,25.55
2017-08-15T13:21:16.544Z,25.5
2017-08-15T13:22:26.462Z,25.52
2017-08-15T13:23:36.393Z,25.51
2017-08-15T13:24:45.394Z,25.46
2017-08-15T13:25:55.639Z,25.46
2017-08-15T13:27:05.569Z,25.51
2017-08-15T13:28:15.506Z,25.46
2017-08-15T13:29:25.446Z,25.46
2017-08-15T13:30:35.377Z,25.6
2017-08-15T13:31:45.296Z,25.6
2017-08-15T13:32:55.266Z,25.5
2017-08-15T13:34:04.870Z,25.5
2017-08-15T13:35:15.099Z,25.54
2017-08-15T13:36:25.022Z,25.57
2017-08-15T13:37:34.642Z,25.57
2017-08-15T13:38:44.890Z,25.57
2017-08-15T13:39:54.809Z,25.46
2017-08-15T13:41:04.728Z,25.54
2017-08-15T13:42:14.037Z,25.52
2017-08-15T13:43:23.803Z,25.47
2017-08-15T13:44:33.743Z,25.47
2017-08-15T13:45:43.679Z,25.51
2017-08-15T13:46:53.914Z,25.47
2017-08-15T13:48:04.148Z,25.51
2017-08-15T13:49:14.522Z,25.57
2017-08-15T13:50:24.773Z,25.51
2017-08-15T13:51:35.015Z,25.5
2017-08-15T13:52:45.261Z,25.6
2017-08-15T13:53:55.184Z,25.51
2017-08-15T13:55:05.421Z,25.51
2017-08-15T13:56:15.346Z,25.46
2017-08-15T13:57:25.571Z,25.55
2017-08-15T13:58:35.174Z,25.51
2017-08-15T13:59:45.104Z,25.52
2017-08-15T14:00:55.035Z,25.61
2017-08-15T14:02:05.287Z,25.5
2017-08-15T14:03:15.528Z,25.51
2017-08-15T14:04:25.445Z,25.58
2017-08-15T14:05:35.080Z,25.46
2017-08-15T14:06:45.192Z,25.54
2017-08-15T14:07:55.111Z,25.55
2017-08-15T14:09:05.061Z,25.51
2017-08-15T14:10:14.699Z,25.52
2017-08-15T14:11:24.309Z,25.51
2017-08-15T14:12:34.114Z,25.46
2017-08-15T14:13:44.035Z,25.46
2017-08-15T14:14:53.957Z,25.5
2017-08-15T14:16:03.576Z,25.52
2017-08-15T14:17:13.500Z,25.47
2017-08-15T14:18:23.573Z,25.5
2017-08-15T14:19:33.833Z,25.51
2017-08-15T14:20:43.763Z,25.47
2017-08-15T14:21:53.399Z,25.47
2017-08-15T14:23:03.036Z,25.47
2017-08-15T14:24:12.641Z,25.51
2017-08-15T14:25:22.910Z,25.46
2017-08-15T14:26:32.829Z,25.51
2017-08-15T14:27:42.456Z,25.47
2017-08-15T14:28:52.384Z,25.54
2017-08-15T14:30:02.141Z,25.46
2017-08-15T14:31:11.158Z,25.45
2017-08-15T14:32:21.097Z,25.46
2017-08-15T14:33:31.053Z,25.5
2017-08-15T14:34:40.371Z,25.51
2017-08-15T14:35:50.460Z,25.52
2017-08-15T14:37:00.697Z,25.47
2017-08-15T14:38:10.940Z,25.47
2017-08-15T14:39:21.174Z,25.46
2017-08-15T14:40:30.791Z,25.5
2017-08-15T14:41:40.712Z,25.46
2017-08-15T14:42:50.960Z,25.42
2017-08-15T14:44:00.877Z,25.36
2017-08-15T14:45:11.124Z,25.33
2017-08-15T14:46:21.050Z,25.43
2017-08-15T14:47:31.283Z,25.39
2017-08-15T14:48:41.222Z,25.36
2017-08-15T14:49:50.848Z,25.39
2017-08-15T14:51:00.795Z,25.4
2017-08-15T14:52:10.740Z,25.33
2017-08-15T14:53:20.683Z,25.36
2017-08-15T14:54:30.615Z,25.33
2017-08-15T14:55:40.550Z,25.35
2017-08-15T14:56:50.198Z,25.39
2017-08-15T14:57:59.818Z,25.33
2017-08-15T14:59:09.895Z,25.38
2017-08-15T15:00:19.861Z,25.35
2017-08-15T15:01:29.785Z,25.42
2017-08-15T15:02:40.011Z,25.4
2017-08-15T15:03:50.246Z,25.38
2017-08-15T15:04:59.702Z,25.4
2017-08-15T15:06:09.938Z,25.36